Latest Weather Observations for Thargomindah

IDQ60801

Issued at 8:22 pm EST Friday 26 February 2021 (issued every 10 minutes, with the page automatically refreshed every 10 minutes)

About weather observations | Map of weather stations | Latest weather observations for QLD | Other Formats
Station Details ID: 045025 Name: THARGOMINDAH AIRPORT Lat: -27.99 Lon: 143.81 Height: 130.89 m
Data from the previous 72 hours. | See also: Recent months at Thargomindah
Date/Time
EST
Temp
°C
App
Temp
°C
Dew
Point
°C
Rel
Hum
%
Delta-T
°C
Wind Press
QNH
hPa
Press
MSL
hPa
Rain since
9am
mm
Dir  Spd
km/h
Gust
km/h
Spd
kts
Gust
kts
26/08:00pm 25.4 26.7 19.3 69 3.9 NE 11 15 6 8 1007.5 1006.6 0.2
26/07:30pm 26.3 28.1 18.7 63 4.9 SSW 7 11 4 6 1006.8 1005.9 0.2
26/07:00pm 26.4 27.2 19.0 63 4.8 SSW 13 20 7 11 1006.6 1005.7 0.2
26/06:30pm 25.5 27.4 18.9 67 4.2 ENE 7 11 4 6 1006.9 1006.0 0.2
26/06:00pm 26.0 25.2 17.1 58 5.6 NNW 17 46 9 25 1007.9 1007.0 0.0
26/05:59pm 26.8 26.1 16.4 53 6.5 NNW 15 46 8 25 1007.8 1006.9 0.0
26/05:44pm 30.0 28.2 13.3 36 10.0 NNW 15 20 8 11 1006.7 1005.8 0.0
26/05:34pm 30.7 25.3 12.1 32 11.0 N 32 50 17 27 1006.1 1005.1 0.0
26/05:30pm 30.3 24.1 12.7 34 10.5 N 37 56 20 30 1006.1 1005.1 0.0
26/05:25pm 31.4 26.6 11.7 29 11.6 NNW 28 56 15 30 1005.7 1004.7 0.0
26/05:21pm 31.6 29.3 10.3 27 12.3 NNW 13 52 7 28 1005.5 1004.5 0.0
26/05:20pm 32.0 30.2 10.7 27 12.4 N 11 37 6 20 1005.5 1004.5 0.0
26/05:00pm 34.5 33.0 9.0 21 14.6 SSE 7 13 4 7 1004.6 1003.6 0.0
26/04:30pm 34.7 32.8 9.2 21 14.6 SE 9 20 5 11 1004.6 1003.6 0.0
26/04:00pm 35.2 33.3 8.9 20 15.1 ENE 9 13 5 7 1004.7 1003.7 0.0
26/03:30pm 35.3 34.1 9.7 21 14.8 ENE 6 11 3 6 1005.1 1004.1 0.0
26/03:00pm 35.0 33.2 9.4 21 14.8 N 9 13 5 7 1005.5 1004.5 0.0
26/02:30pm 34.2 32.9 10.1 23 14.0 NNE 7 13 4 7 1006.2 1005.2 0.0
26/02:00pm 34.0 32.3 11.2 25 13.5 ENE 11 17 6 9 1006.6 1005.7 0.0
26/01:30pm 35.3 34.3 12.3 25 13.9 W 9 15 5 8 1006.8 1005.9 0.0
26/01:00pm 33.6 32.3 12.6 28 12.6 ENE 11 20 6 11 1007.1 1006.2 0.0
26/12:30pm 32.9 31.6 12.5 29 12.2 E 11 19 6 10 1007.6 1006.7 0.0
26/12:00pm 32.3 31.2 13.0 31 11.6 NNW 11 17 6 9 1007.8 1006.9 0.0
26/11:30am 32.1 31.4 13.3 31 11.4 NNE 9 19 5 10 1008.3 1007.4 0.0
26/11:00am 31.2 29.8 14.4 36 10.3 NE 15 24 8 13 1008.7 1007.8 0.0
26/10:30am 29.9 28.8 14.4 38 9.4 NNE 13 19 7 10 1008.8 1007.9 0.0
26/10:00am 29.8 30.2 16.2 43 8.5 NNE 9 17 5 9 1009.1 1008.2 0.0
26/09:30am 28.5 28.5 14.3 41 8.6 ENE 7 17 4 9 1009.2 1008.3 0.0
26/09:00am 28.2 26.9 11.3 35 9.7 ENE 9 13 5 7 1009.1 1008.2 0.0
26/08:30am 26.8 24.6 7.8 30 10.2 E 9 13 5 7 1009.1 1008.2 0.0
26/08:00am 25.6 22.1 3.6 24 10.9 ESE 11 15 6 8 1009.0 1008.1 0.0
26/07:30am 24.2 20.2 0.5 21 11.0 SE 11 15 6 8 1008.7 1007.8 0.0
26/07:00am 23.0 19.5 1.4 24 10.1 SE 9 11 5 6 1008.4 1007.5 0.0
26/06:30am 22.5 18.7 1.5 25 9.8 SE 11 13 6 7 1008.0 1007.1 0.0
26/06:00am 22.6 19.2 2.1 26 9.7 SSW 9 11 5 6 1007.8 1006.9 0.0
26/05:30am 23.1 19.6 1.5 24 10.1 S 9 11 5 6 1007.4 1006.5 0.0
26/05:00am 23.8 20.3 1.4 23 10.6 S 9 13 5 7 1007.2 1006.3 0.0
26/04:30am 24.2 20.3 1.2 22 10.8 SSE 11 17 6 9 1007.3 1006.4 0.0
26/04:00am 24.4 20.6 1.9 23 10.8 SSE 11 15 6 8 1007.2 1006.3 0.0
26/03:30am 24.5 20.7 2.0 23 10.8 SSE 11 13 6 7 1007.2 1006.3 0.0
26/03:00am 25.2 21.4 2.0 22 11.2 SE 11 13 6 7 1007.3 1006.4 0.0
26/02:30am 26.1 22.2 1.4 20 11.8 SSE 11 15 6 8 1007.5 1006.6 0.0
26/02:00am 26.1 22.7 2.1 21 11.7 SE 9 11 5 6 1007.9 1007.0 0.0
26/01:30am 26.0 22.4 2.7 22 11.4 SE 11 17 6 9 1008.1 1007.2 0.0
26/01:00am 25.9 21.7 1.9 21 11.6 SE 13 19 7 10 1008.4 1007.5 0.0
26/12:30am 25.9 21.4 1.9 21 11.6 S 15 20 8 11 1008.5 1007.6 0.0
26/12:00am 25.6 22.1 1.0 20 11.7 SSE 9 11 5 6 1008.9 1008.0 0.0
 
Date/Time
EST
Temp
°C
App
Temp
°C
Dew
Point
°C
Rel
Hum
%
Delta-T
°C
Wind Press
QNH
hPa
Press
MSL
hPa
Rain since
9am
mm
Dir  Spd
km/h
Gust
km/h
Spd
kts
Gust
kts
25/11:30pm 26.0 22.0 0.6 19 12.0 S 11 13 6 7 1008.8 1007.9 0.0
25/11:00pm 26.4 23.1 0.2 18 12.3 S 7 9 4 5 1008.8 1007.9 0.0
25/10:30pm 27.2 23.0 -0.8 16 13.0 SSW 11 13 6 7 1008.7 1007.8 0.0
25/10:00pm 28.3 23.7 -0.8 15 13.6 SSW 13 17 7 9 1008.6 1007.7 0.0
25/09:30pm 28.9 24.0 -0.3 15 13.8 SSW 15 19 8 10 1008.4 1007.5 0.0
25/09:00pm 29.6 24.4 0.2 15 14.2 SSW 17 20 9 11 1008.0 1007.1 0.0
25/08:30pm 29.9 25.1 0.5 15 14.2 SW 15 22 8 12 1007.6 1006.7 0.0
25/08:00pm 30.8 25.6 0.2 14 14.9 SSW 17 26 9 14 1007.3 1006.4 0.0
25/07:30pm 31.5 25.5 0.8 14 15.1 SSW 22 30 12 16 1006.6 1005.7 0.0
25/07:00pm 32.1 25.8 1.3 14 15.4 SSW 24 30 13 16 1006.1 1005.1 0.0
25/06:30pm 32.9 26.7 1.9 14 15.7 SSW 24 30 13 16 1005.8 1004.8 0.0
25/06:00pm 33.7 27.9 2.5 14 16.1 SSW 22 32 12 17 1005.7 1004.7 0.0
25/05:30pm 34.3 29.0 3.0 14 16.2 S 20 28 11 15 1005.4 1004.4 0.0
25/05:00pm 34.1 28.8 2.8 14 16.2 SSW 20 37 11 20 1005.3 1004.3 0.0
25/04:30pm 34.5 29.2 3.1 14 16.3 SSW 20 32 11 17 1005.4 1004.4 0.0
25/04:00pm 34.2 29.3 3.9 15 16.0 SSW 19 28 10 15 1005.6 1004.6 0.0
25/03:30pm 34.5 29.6 4.1 15 16.1 SW 19 32 10 17 1005.8 1004.8 0.0
25/03:00pm 33.6 29.5 4.3 16 15.5 SSW 15 26 8 14 1006.3 1005.4 0.0
25/02:30pm 34.5 30.1 5.0 16 15.8 SSW 17 30 9 16 1006.9 1006.0 0.0
25/02:00pm 33.5 29.4 4.2 16 15.5 WSW 15 30 8 16 1007.5 1006.6 0.0
25/01:30pm 32.6 28.7 3.5 16 15.1 SW 13 22 7 12 1007.9 1007.0 0.0
25/01:00pm 31.9 27.2 3.0 16 14.8 S 17 32 9 17 1008.4 1007.5 0.0
25/12:30pm 32.3 28.8 3.3 16 14.9 SSE 11 19 6 10 1008.8 1007.9 0.0
25/12:00pm 30.6 27.1 3.6 18 13.9 SSE 11 22 6 12 1009.1 1008.2 0.0
25/11:30am 30.3 26.8 3.4 18 13.7 SSW 11 17 6 9 1009.7 1008.8 0.0
25/11:00am 29.7 26.2 1.2 16 14.0 ESE 9 15 5 8 1010.3 1009.3 0.0
25/10:30am 28.3 24.1 -0.8 15 13.6 SSE 11 20 6 11 1010.6 1009.6 0.0
25/10:00am 26.9 22.7 -1.0 16 12.9 ESE 11 17 6 9 1010.7 1009.7 0.0
25/09:30am 26.1 21.0 -1.7 16 12.6 SSE 15 22 8 12 1010.6 1009.6 0.0
25/09:00am 24.9 19.0 -2.6 16 12.1 SSE 19 26 10 14 1010.6 1009.6 0.0
25/08:30am 24.3 18.3 -3.1 16 11.9 SSE 19 26 10 14 1010.4 1009.4 0.0
25/08:00am 23.1 17.2 -2.5 18 11.1 S 19 24 10 13 1010.5 1009.5 0.0
25/07:30am 22.4 16.9 -2.3 19 10.7 S 17 20 9 11 1010.4 1009.4 0.0
25/07:00am 21.6 16.7 -3.0 19 10.5 S 13 19 7 10 1010.1 1009.1 0.0
25/06:30am 21.2 15.6 -3.3 19 10.3 S 17 20 9 11 1009.4 1008.5 0.0
25/06:00am 21.2 15.9 -3.3 19 10.3 S 15 19 8 10 1009.3 1008.4 0.0
25/05:30am 21.4 15.8 -3.1 19 10.4 S 17 22 9 12 1009.1 1008.2 0.0
25/05:00am 21.6 15.9 -3.7 18 10.6 S 17 24 9 13 1008.7 1007.8 0.0
25/04:30am 21.7 15.8 -5.2 16 11.0 S 17 24 9 13 1008.4 1007.5 0.0
25/04:00am 22.0 16.2 -4.9 16 11.1 S 17 22 9 12 1008.0 1007.1 0.0
25/03:30am 22.5 16.1 -5.4 15 11.4 S 20 26 11 14 1007.9 1007.0 0.0
25/03:00am 22.8 16.9 -5.2 15 11.6 SSE 17 20 9 11 1008.3 1007.4 0.0
25/02:30am 23.2 17.4 -4.8 15 11.7 S 17 22 9 12 1008.3 1007.4 0.0
25/02:00am 23.6 18.1 -5.4 14 12.0 SSE 15 19 8 10 1008.7 1007.8 0.0
25/01:30am 24.0 18.2 -5.1 14 12.1 SSE 17 22 9 12 1008.8 1007.9 0.0
25/01:00am 24.6 18.4 -4.6 14 12.4 S 19 24 10 13 1008.9 1008.0 0.0
25/12:30am 24.7 18.4 -3.6 15 12.2 S 20 28 11 15 1009.0 1008.1 0.0
25/12:00am 24.4 19.5 -3.0 16 12.0 S 13 17 7 9 1009.0 1008.1 0.0
 
Date/Time
EST
Temp
°C
App
Temp
°C
Dew
Point
°C
Rel
Hum
%
Delta-T
°C
Wind Press
QNH
hPa
Press
MSL
hPa
Rain since
9am
mm
Dir  Spd
km/h
Gust
km/h
Spd
kts
Gust
kts
24/11:30pm 24.6 19.8 -2.9 16 12.0 SSW 13 15 7 8 1009.1 1008.2 0.0
24/11:00pm 25.3 20.9 -2.3 16 12.3 SSW 11 13 6 7 1008.9 1008.0 0.0
24/10:30pm 26.3 21.3 -1.5 16 12.6 S 15 17 8 9 1008.8 1007.9 0.0
24/10:00pm 26.6 21.7 -0.4 17 12.6 SSW 15 19 8 10 1008.7 1007.8 0.0
24/09:30pm 27.7 22.4 -0.4 16 13.2 S 17 20 9 11 1008.6 1007.7 0.0
24/09:00pm 28.2 23.6 -0.9 15 13.6 S 13 17 7 9 1008.4 1007.5 0.0
24/08:30pm 28.8 23.9 -0.4 15 13.8 S 15 17 8 9 1008.0 1007.1 0.0
24/08:00pm 29.4 25.0 0.1 15 14.1 S 13 17 7 9 1007.9 1007.0 0.0
24/07:30pm 30.3 25.6 0.8 15 14.4 S 15 19 8 10 1007.5 1006.6 0.0
24/07:00pm 30.9 25.7 0.3 14 14.9 S 17 24 9 13 1007.2 1006.3 0.0
24/06:30pm 31.5 26.2 1.8 15 14.9 S 19 24 10 13 1007.0 1006.1 0.0
24/06:00pm 31.9 26.9 1.1 14 15.3 S 17 22 9 12 1006.9 1006.0 0.0
24/05:30pm 32.7 28.5 1.7 14 15.6 S 13 28 7 15 1006.9 1006.0 0.0
24/05:00pm 32.2 27.6 1.3 14 15.4 SSW 15 24 8 13 1007.2 1006.3 0.0
24/04:30pm 32.4 27.0 1.5 14 15.5 S 19 32 10 17 1007.4 1006.5 0.0
24/04:00pm 32.7 28.1 1.7 14 15.6 S 15 24 8 13 1007.6 1006.7 0.0
24/03:30pm 32.0 26.0 1.2 14 15.3 S 22 33 12 18 1007.9 1007.0 0.0
24/03:00pm 32.4 27.4 1.5 14 15.5 S 17 32 9 17 1008.5 1007.6 0.0
24/02:30pm 32.3 26.7 1.4 14 15.4 SSW 20 41 11 22 1008.7 1007.8 0.0
24/02:00pm 32.3 27.3 1.4 14 15.5 SSE 17 30 9 16 1009.2 1008.3 0.0
24/01:30pm 31.0 26.2 0.4 14 14.9 SSE 15 24 8 13 1009.7 1008.8 0.0
24/01:00pm 31.1 25.4 0.5 14 15.0 S 20 28 11 15 1010.2 1009.2 0.0
24/12:30pm 30.3 25.1 -0.1 14 14.6 SE 17 26 9 14 1010.7 1009.7 0.0
24/12:00pm 29.7 24.5 0.3 15 14.2 ESE 17 37 9 20 1011.2 1010.2 0.0
24/11:30am 28.4 23.1 -0.7 15 13.6 SE 17 26 9 14 1011.6 1010.6 0.0
24/11:00am 27.8 22.2 -0.3 16 13.2 SE 19 26 10 14 1012.0 1011.0 0.0
24/10:30am 26.5 20.6 -0.5 17 12.5 SE 20 30 11 16 1012.4 1011.4 0.0
24/10:00am 25.3 19.0 -0.7 18 11.9 ESE 22 30 12 16 1012.7 1011.7 0.0
24/09:30am 24.9 18.6 -1.0 18 11.8 ESE 22 33 12 18 1012.8 1011.8 0.0
24/09:00am 24.2 17.1 -0.9 19 11.4 SE 26 32 14 17 1012.6 1011.6 0.0
24/08:30am 23.2 16.1 -1.0 20 10.8 SE 26 32 14 17 1012.7 1011.7 0.0
24/08:00am 22.2 16.2 -1.8 20 10.5 SE 20 30 11 16 1012.4 1011.4 0.0
24/07:30am 21.3 15.5 -1.3 22 9.9 SE 19 26 10 14 1012.4 1011.4 0.0
24/07:00am 20.4 15.0 -1.4 23 9.5 SE 17 24 9 13 1011.9 1010.9 0.0
24/06:30am 20.0 14.6 -1.2 24 9.2 SSE 17 24 9 13 1011.7 1010.7 0.0
24/06:00am 20.2 14.8 -1.6 23 9.4 SE 17 22 9 12 1011.5 1010.5 0.0
24/05:30am 20.5 15.1 -1.3 23 9.5 SSE 17 24 9 13 1011.3 1010.3 0.0
24/05:00am 21.0 15.3 -0.9 23 9.7 SSE 19 28 10 15 1010.7 1009.7 0.0
24/04:30am 21.3 16.3 -1.3 22 9.9 SSE 15 20 8 11 1011.0 1010.0 0.0
24/04:00am 21.6 15.8 -1.6 21 10.1 SE 19 26 10 14 1010.9 1009.9 0.0
24/03:30am 22.0 16.2 -1.3 21 10.3 SE 19 26 10 14 1010.9 1009.9 0.0
24/03:00am 22.1 16.7 -1.2 21 10.3 SSE 17 24 9 13 1010.9 1009.9 0.0
24/02:30am 22.6 16.9 -0.8 21 10.5 SSE 19 26 10 14 1010.9 1009.9 0.0
24/02:00am 22.7 17.4 -0.7 21 10.5 SSE 17 26 9 14 1011.1 1010.1 0.0
24/01:30am 23.0 17.7 -0.5 21 10.6 SSE 17 22 9 12 1011.5 1010.5 0.0
24/01:00am 23.4 18.2 -0.1 21 10.7 SSE 17 26 9 14 1011.9 1010.9 0.0
24/12:30am 23.9 18.2 -0.4 20 11.1 SSE 19 24 10 13 1011.9 1010.9 0.0
24/12:00am 24.4 18.8 0.0 20 11.3 SSE 19 28 10 15 1012.1 1011.1 0.0
 
Date/Time
EST
Temp
°C
App
Temp
°C
Dew
Point
°C
Rel
Hum
%
Delta-T
°C
Wind Press
QNH
hPa
Press
MSL
hPa
Rain since
9am
mm
Dir  Spd
km/h
Gust
km/h
Spd
kts
Gust
kts
23/11:30pm 24.9 19.1 -0.3 19 11.6 SSE 20 32 11 17 1012.1 1011.1 0.0
23/11:00pm 25.4 18.8 -0.6 18 11.9 SSE 24 35 13 19 1012.0 1011.0 0.0
23/10:30pm 25.9 20.0 -1.0 17 12.3 SSE 20 28 11 15 1011.8 1010.8 0.0
23/10:00pm 26.5 19.4 -1.3 16 12.7 SSE 26 41 14 22 1011.6 1010.6 0.0
23/09:30pm 27.2 20.2 -0.8 16 13.0 SSE 26 39 14 21 1011.3 1010.3 0.0
23/09:00pm 28.2 21.7 0.0 16 13.4 SSE 24 33 13 18 1010.9 1009.9 0.0
23/08:30pm 28.8 23.0 -0.4 15 13.8 SSE 20 28 11 15 1010.5 1009.5 0.0

Other formats

Comma delimited format used in spreadsheet applications
http://www.bom.gov.au/fwo/IDQ60801/IDQ60801.95492.axf

JavaScript Object Notation format (JSON) in row-major order
http://www.bom.gov.au/fwo/IDQ60801/IDQ60801.95492.json

Data quality

Most of these data are generated automatically and are frequently updated. Quality checks on data are not normally performed. It is possible for incorrect values to appear. Refer to information at About Latest Weather Observations and please check the disclaimer before using these data.